Nautilus — OUYX2 — position and weather

sailwx.info

Track history (hours):
 
Tides and Currents Weather Stations Pressure Air Temp Water Temp Dewpoint Dewpoint Depression Visibility Wind Speed Wind Dir Waves Ship Positions

Nautilus

Last reported at 2016-Dec-05 16:32 UTC. Time now 2016-Dec-05 16:39 UTC.
Position N 58°21' E 011°26'.

Length 120 m; draft 5 m.

Type: Ship. MMSI: 219425000.

Date/timePositionNaut miles runAvg speedWind from/ knotsBaromVisibWave heightAir tempDewpointWater temp
2016-Dec-05 16:32N 58°21' E 011°26'4 3.7
2016-Dec-05 15:33N 58°19' E 011°21'1110.9
2016-Dec-05 14:33N 58°09' E 011°14'1211.8
2016-Dec-05 13:34N 57°57' E 011°18'1211.7
2016-Dec-05 12:33N 57°45' E 011°21'1211.7
2016-Dec-05 11:34N 57°34' E 011°27'1111.4
2016-Dec-05 10:34N 57°25' E 011°39'1211.8
2016-Dec-05 09:33N 57°15' E 011°51'1612.0
2016-Dec-05 08:14N 56°60' E 012°01'4512.1
2016-Dec-05 04:33N 56°17' E 012°25'1212.0
2016-Dec-05 03:34N 56°06' E 012°34'1111.5
2016-Dec-05 02:34N 55°56' E 012°44'1312.6
2016-Dec-05 01:33N 55°44' E 012°51'9 8.9
2016-Dec-05 00:34N 55°35' E 012°51'1010.3
2016-Dec-04 23:33N 55°27' E 012°42'1010.1
2016-Dec-04 22:34N 55°17' E 012°47'1211.7
2016-Dec-04 21:33N 55°15' E 013°08'1212.0
2016-Dec-04 20:31N 55°15' E 013°30'1412.0
2016-Dec-04 19:22N 55°14' E 013°54'911.6
2016-Dec-04 18:34N 55°14' E 014°10'1110.7
2016-Dec-04 17:33N 55°21' E 014°25'1211.7
2016-Dec-04 16:33N 55°29' E 014°40'1211.9
2016-Dec-04 15:33N 55°35' E 014°58'1211.6
2016-Dec-04 14:32N 55°40' E 015°16'20611.4
2016-Dec-03 20:32N 58°50' E 017°44'23 6.6
2016-Dec-03 17:04N 59°13' E 017°37'4 8.3
2016-Dec-03 16:33N 59°16' E 017°34'1211.6
2016-Dec-03 15:33N 59°26' E 017°22'1010.1
2016-Dec-03 14:33N 59°32' E 017°05'9 8.9
2016-Dec-03 13:33N 59°30' E 016°48'4 0.3
2016-Dec-02 22:33N 59°29' E 016°56'8 8.0
2016-Dec-02 21:33N 59°31' E 017°11'1111.1
2016-Dec-02 20:33N 59°23' E 017°27'1110.9
2016-Dec-02 19:33N 59°13' E 017°37'234 8.4
2016-Dec-01 15:33N 55°33' E 015°08'1212.0
2016-Dec-01 14:33N 55°28' E 014°49'1111.3
2016-Dec-01 13:33N 55°21' E 014°33'1211.8
2016-Dec-01 12:33N 55°11' E 014°21'1211.6
2016-Dec-01 11:33N 55°11' E 014°00'2412.1
2016-Dec-01 09:33N 55°12' E 013°18'1211.9
2016-Dec-01 08:33N 55°14' E 012°57'1212.0
2016-Dec-01 07:33N 55°19' E 012°38'1110.9
2016-Dec-01 06:33N 55°29' E 012°42'9 9.3
2016-Dec-01 05:33N 55°37' E 012°53'9 8.8
2016-Dec-01 04:33N 55°45' E 012°50'1211.8
2016-Dec-01 03:33N 55°55' E 012°38'1111.2
2016-Dec-01 02:33N 56°06' E 012°34'1211.9
2016-Dec-01 01:32N 56°16' E 012°22'5313.1
2016-Nov-30 21:31N 57°07' E 011°57'1212.6
2016-Nov-30 20:33N 57°18' E 011°47'1312.8
2016-Nov-30 19:33N 57°28' E 011°33'1312.6
2016-Nov-30 18:33N 57°40' E 011°23'1312.8
2016-Nov-30 17:33N 57°52' E 011°19'1212.1
2016-Nov-30 16:33N 58°04' E 011°15'1111.2
2016-Nov-30 15:33N 58°15' E 011°15'8 8.3
2016-Nov-30 14:33N 58°21' E 011°26'0 0.0
2016-Nov-29 23:34N 58°21' E 011°26'1 0.6
2016-Nov-29 22:34N 58°21' E 011°25'9 9.4
2016-Nov-29 21:33N 58°14' E 011°14'9 8.7
2016-Nov-29 20:34N 58°05' E 011°15'8 7.5
2016-Nov-29 19:33N 57°58' E 011°17'8 7.8
2016-Nov-29 18:33N 57°50' E 011°20'8 7.6
2016-Nov-29 17:34N 57°43' E 011°22'7 7.1
2016-Nov-29 16:34N 57°36' E 011°25'7 7.4
2016-Nov-29 15:33N 57°29' E 011°28'7 7.5
2016-Nov-29 14:34N 57°21' E 011°32'7 7.2
2016-Nov-29 13:33N 57°15' E 011°36'7 7.3
2016-Nov-29 12:34N 57°08' E 011°39'52 1.0
2016-Nov-27 10:33N 56°20' E 011°01'10 9.6
2016-Nov-27 09:33N 56°13' E 010°50'1111.1
2016-Nov-27 08:33N 56°03' E 010°41'1313.1
2016-Nov-27 07:33N 56°09' E 010°19'3 2.9
2016-Nov-27 06:31N 56°09' E 010°13'0 0.0
2016-Nov-27 05:31N 56°09' E 010°13'0 0.0
2016-Nov-27 04:31N 56°09' E 010°13'0 0.0
2016-Nov-27 03:31N 56°09' E 010°13'0 0.0
2016-Nov-27 02:31N 56°09' E 010°13'0 0.0
2016-Nov-27 01:31N 56°09' E 010°13'0 0.0
2016-Nov-27 00:31N 56°09' E 010°13'0 0.0
2016-Nov-26 23:31N 56°09' E 010°13'0 0.0
2016-Nov-26 22:31N 56°09' E 010°13'0 0.0
2016-Nov-26 21:31N 56°09' E 010°13'0 0.0
2016-Nov-26 20:31N 56°09' E 010°13'0 0.0
2016-Nov-26 19:31N 56°09' E 010°13'0 0.0
2016-Nov-26 18:31N 56°09' E 010°13'0 0.0
2016-Nov-26 17:31N 56°09' E 010°13'0 0.0
2016-Nov-26 16:31N 56°09' E 010°13'0 0.0
2016-Nov-26 15:31N 56°09' E 010°13'0 0.0
2016-Nov-26 14:31N 56°09' E 010°13'0 0.0
2016-Nov-26 13:31N 56°09' E 010°13'0 0.0
2016-Nov-26 12:31N 56°09' E 010°13'0 0.0
2016-Nov-26 11:31N 56°09' E 010°13'0 0.0
2016-Nov-26 10:31N 56°09' E 010°13'0 0.0
2016-Nov-26 09:31N 56°09' E 010°13'0 0.0
2016-Nov-26 08:31N 56°09' E 010°13'0 0.0
2016-Nov-26 07:31N 56°09' E 010°13'0 0.0
2016-Nov-26 06:31N 56°09' E 010°13'0 0.0
2016-Nov-26 05:31N 56°09' E 010°13'0 0.0
2016-Nov-26 04:31N 56°09' E 010°13'0 0.0
2016-Nov-26 03:31N 56°09' E 010°13'0 0.0
2016-Nov-26 02:31N 56°09' E 010°13'0 0.0
2016-Nov-26 01:31N 56°09' E 010°13'0 0.0
2016-Nov-26 00:31N 56°09' E 010°13'0 0.0
2016-Nov-25 23:31N 56°09' E 010°13'0 0.0
2016-Nov-25 22:31N 56°09' E 010°13'0 0.0
2016-Nov-25 21:31N 56°09' E 010°13'0 0.0
2016-Nov-25 20:31N 56°09' E 010°13'0 0.0
2016-Nov-25 19:31N 56°09' E 010°13'0 0.0
2016-Nov-25 18:31N 56°09' E 010°13'0 0.0
2016-Nov-25 17:31N 56°09' E 010°13'  
Track history (hours):
 
Tides and Currents Weather Stations Pressure Air Temp Water Temp Dewpoint Dewpoint Depression Visibility Wind Speed Wind Dir Waves Ship Positions

Nautilus

Last reported at 2016-Dec-05 16:32 UTC. Time now 2016-Dec-05 16:39 UTC.
Position N 58°21' E 011°26'.

Length 120 m; draft 5 m.

Type: Ship. MMSI: 219425000.

Date/timePositionNaut miles runAvg speedWind from/ knotsBaromVisibWave heightAir tempDewpointWater temp
2016-Dec-05 16:32N 58°21' E 011°26'4 3.7
2016-Dec-05 15:33N 58°19' E 011°21'1110.9
2016-Dec-05 14:33N 58°09' E 011°14'1211.8
2016-Dec-05 13:34N 57°57' E 011°18'1211.7
2016-Dec-05 12:33N 57°45' E 011°21'1211.7
2016-Dec-05 11:34N 57°34' E 011°27'1111.4
2016-Dec-05 10:34N 57°25' E 011°39'1211.8
2016-Dec-05 09:33N 57°15' E 011°51'1612.0
2016-Dec-05 08:14N 56°60' E 012°01'4512.1
2016-Dec-05 04:33N 56°17' E 012°25'1212.0
2016-Dec-05 03:34N 56°06' E 012°34'1111.5
2016-Dec-05 02:34N 55°56' E 012°44'1312.6
2016-Dec-05 01:33N 55°44' E 012°51'9 8.9
2016-Dec-05 00:34N 55°35' E 012°51'1010.3
2016-Dec-04 23:33N 55°27' E 012°42'1010.1
2016-Dec-04 22:34N 55°17' E 012°47'1211.7
2016-Dec-04 21:33N 55°15' E 013°08'1212.0
2016-Dec-04 20:31N 55°15' E 013°30'1412.0
2016-Dec-04 19:22N 55°14' E 013°54'911.6
2016-Dec-04 18:34N 55°14' E 014°10'1110.7
2016-Dec-04 17:33N 55°21' E 014°25'1211.7
2016-Dec-04 16:33N 55°29' E 014°40'1211.9
2016-Dec-04 15:33N 55°35' E 014°58'1211.6
2016-Dec-04 14:32N 55°40' E 015°16'20611.4
2016-Dec-03 20:32N 58°50' E 017°44'23 6.6
2016-Dec-03 17:04N 59°13' E 017°37'4 8.3
2016-Dec-03 16:33N 59°16' E 017°34'1211.6
2016-Dec-03 15:33N 59°26' E 017°22'1010.1
2016-Dec-03 14:33N 59°32' E 017°05'9 8.9
2016-Dec-03 13:33N 59°30' E 016°48'4 0.3
2016-Dec-02 22:33N 59°29' E 016°56'8 8.0
2016-Dec-02 21:33N 59°31' E 017°11'1111.1
2016-Dec-02 20:33N 59°23' E 017°27'1110.9
2016-Dec-02 19:33N 59°13' E 017°37'234 8.4
2016-Dec-01 15:33N 55°33' E 015°08'1212.0
2016-Dec-01 14:33N 55°28' E 014°49'1111.3
2016-Dec-01 13:33N 55°21' E 014°33'1211.8
2016-Dec-01 12:33N 55°11' E 014°21'1211.6
2016-Dec-01 11:33N 55°11' E 014°00'2412.1
2016-Dec-01 09:33N 55°12' E 013°18'1211.9
2016-Dec-01 08:33N 55°14' E 012°57'1212.0
2016-Dec-01 07:33N 55°19' E 012°38'1110.9
2016-Dec-01 06:33N 55°29' E 012°42'9 9.3
2016-Dec-01 05:33N 55°37' E 012°53'9 8.8
2016-Dec-01 04:33N 55°45' E 012°50'1211.8
2016-Dec-01 03:33N 55°55' E 012°38'1111.2
2016-Dec-01 02:33N 56°06' E 012°34'1211.9
2016-Dec-01 01:32N 56°16' E 012°22'5313.1
2016-Nov-30 21:31N 57°07' E 011°57'1212.6
2016-Nov-30 20:33N 57°18' E 011°47'1312.8
2016-Nov-30 19:33N 57°28' E 011°33'1312.6
2016-Nov-30 18:33N 57°40' E 011°23'1312.8
2016-Nov-30 17:33N 57°52' E 011°19'1212.1
2016-Nov-30 16:33N 58°04' E 011°15'1111.2
2016-Nov-30 15:33N 58°15' E 011°15'8 8.3
2016-Nov-30 14:33N 58°21' E 011°26'0 0.0
2016-Nov-29 23:34N 58°21' E 011°26'1 0.6
2016-Nov-29 22:34N 58°21' E 011°25'9 9.4
2016-Nov-29 21:33N 58°14' E 011°14'9 8.7
2016-Nov-29 20:34N 58°05' E 011°15'8 7.5
2016-Nov-29 19:33N 57°58' E 011°17'8 7.8
2016-Nov-29 18:33N 57°50' E 011°20'8 7.6
2016-Nov-29 17:34N 57°43' E 011°22'7 7.1
2016-Nov-29 16:34N 57°36' E 011°25'7 7.4
2016-Nov-29 15:33N 57°29' E 011°28'7 7.5
2016-Nov-29 14:34N 57°21' E 011°32'7 7.2
2016-Nov-29 13:33N 57°15' E 011°36'7 7.3
2016-Nov-29 12:34N 57°08' E 011°39'52 1.0
2016-Nov-27 10:33N 56°20' E 011°01'10 9.6
2016-Nov-27 09:33N 56°13' E 010°50'1111.1
2016-Nov-27 08:33N 56°03' E 010°41'1313.1
2016-Nov-27 07:33N 56°09' E 010°19'3 2.9
2016-Nov-27 06:31N 56°09' E 010°13'0 0.0
2016-Nov-27 05:31N 56°09' E 010°13'0 0.0
2016-Nov-27 04:31N 56°09' E 010°13'0 0.0
2016-Nov-27 03:31N 56°09' E 010°13'0 0.0
2016-Nov-27 02:31N 56°09' E 010°13'0 0.0
2016-Nov-27 01:31N 56°09' E 010°13'0 0.0
2016-Nov-27 00:31N 56°09' E 010°13'0 0.0
2016-Nov-26 23:31N 56°09' E 010°13'0 0.0
2016-Nov-26 22:31N 56°09' E 010°13'0 0.0
2016-Nov-26 21:31N 56°09' E 010°13'0 0.0
2016-Nov-26 20:31N 56°09' E 010°13'0 0.0
2016-Nov-26 19:31N 56°09' E 010°13'0 0.0
2016-Nov-26 18:31N 56°09' E 010°13'0 0.0
2016-Nov-26 17:31N 56°09' E 010°13'0 0.0
2016-Nov-26 16:31N 56°09' E 010°13'0 0.0
2016-Nov-26 15:31N 56°09' E 010°13'0 0.0
2016-Nov-26 14:31N 56°09' E 010°13'0 0.0
2016-Nov-26 13:31N 56°09' E 010°13'0 0.0
2016-Nov-26 12:31N 56°09' E 010°13'0 0.0
2016-Nov-26 11:31N 56°09' E 010°13'0 0.0
2016-Nov-26 10:31N 56°09' E 010°13'0 0.0
2016-Nov-26 09:31N 56°09' E 010°13'0 0.0
2016-Nov-26 08:31N 56°09' E 010°13'0 0.0
2016-Nov-26 07:31N 56°09' E 010°13'0 0.0
2016-Nov-26 06:31N 56°09' E 010°13'0 0.0
2016-Nov-26 05:31N 56°09' E 010°13'0 0.0
2016-Nov-26 04:31N 56°09' E 010°13'0 0.0
2016-Nov-26 03:31N 56°09' E 010°13'0 0.0
2016-Nov-26 02:31N 56°09' E 010°13'0 0.0
2016-Nov-26 01:31N 56°09' E 010°13'0 0.0
2016-Nov-26 00:31N 56°09' E 010°13'0 0.0
2016-Nov-25 23:31N 56°09' E 010°13'0 0.0
2016-Nov-25 22:31N 56°09' E 010°13'0 0.0
2016-Nov-25 21:31N 56°09' E 010°13'0 0.0
2016-Nov-25 20:31N 56°09' E 010°13'0 0.0
2016-Nov-25 19:31N 56°09' E 010°13'0 0.0
2016-Nov-25 18:31N 56°09' E 010°13'0 0.0
2016-Nov-25 17:31N 56°09' E 010°13'  

Dump ship's entire track history